createdAt,value
2019-03-22T00:00:29.421Z,997.71
2019-03-22T00:01:29.385Z,997.73
2019-03-22T00:02:29.367Z,997.73
2019-03-22T00:03:29.355Z,997.71
2019-03-22T00:04:40.114Z,997.70
2019-03-22T00:05:29.332Z,997.77
2019-03-22T00:06:29.357Z,997.70
2019-03-22T00:07:29.314Z,997.69
2019-03-22T00:08:29.302Z,997.79
2019-03-22T00:09:29.289Z,997.88
2019-03-22T00:10:29.280Z,997.90
2019-03-22T00:11:29.269Z,997.89
2019-03-22T00:12:29.270Z,998.03
2019-03-22T00:13:29.246Z,997.88
2019-03-22T00:14:29.238Z,997.83
2019-03-22T00:15:29.224Z,997.89
2019-03-22T00:16:29.220Z,997.86
2019-03-22T00:17:29.206Z,997.91
2019-03-22T00:18:29.195Z,998.10
2019-03-22T00:19:29.186Z,997.97
2019-03-22T00:20:29.176Z,997.99
2019-03-22T00:21:29.230Z,998.05
2019-03-22T00:22:29.148Z,998.01
2019-03-22T00:23:29.138Z,998.04
2019-03-22T00:24:29.130Z,997.88
2019-03-22T00:25:29.120Z,997.99
2019-03-22T00:26:29.109Z,997.95
2019-03-22T00:27:29.104Z,997.97
2019-03-22T00:28:29.085Z,997.98
2019-03-22T00:29:29.081Z,998.03
2019-03-22T00:30:29.061Z,998.08
2019-03-22T00:31:29.052Z,998.04
2019-03-22T00:32:29.087Z,998.02
2019-03-22T00:33:29.034Z,997.95
2019-03-22T00:34:29.020Z,997.96
2019-03-22T00:35:38.968Z,998.00
2019-03-22T00:36:28.996Z,997.95
2019-03-22T00:37:28.986Z,997.92
2019-03-22T00:38:29.075Z,997.96
2019-03-22T00:39:28.965Z,997.88
2019-03-22T00:40:28.954Z,997.92
2019-03-22T00:41:28.947Z,997.97
2019-03-22T00:42:28.935Z,997.96
2019-03-22T00:43:28.922Z,998.03
2019-03-22T00:44:28.949Z,998.08
2019-03-22T00:45:28.901Z,998.03
2019-03-22T00:46:28.893Z,998.04
2019-03-22T00:47:28.880Z,998.07
2019-03-22T00:48:28.872Z,998.05
2019-03-22T00:49:28.860Z,998.13
2019-03-22T00:50:28.883Z,998.21
2019-03-22T00:51:28.839Z,998.31
2019-03-22T00:52:28.827Z,998.27
2019-03-22T00:53:28.824Z,998.28
2019-03-22T00:54:28.810Z,998.34
2019-03-22T00:55:28.801Z,998.30
2019-03-22T00:56:28.806Z,998.33
2019-03-22T00:57:28.997Z,998.28
2019-03-22T00:58:28.762Z,998.32
2019-03-22T00:59:28.757Z,998.38
2019-03-22T01:00:28.741Z,998.33
2019-03-22T01:01:28.786Z,998.37
2019-03-22T01:02:28.747Z,998.36
2019-03-22T01:03:28.709Z,998.38
2019-03-22T01:04:28.701Z,998.37
2019-03-22T01:05:28.685Z,998.26
2019-03-22T01:06:40.106Z,998.38
2019-03-22T01:07:28.668Z,998.39
2019-03-22T01:08:28.661Z,998.30
2019-03-22T01:09:28.645Z,998.33
2019-03-22T01:10:28.644Z,998.34
2019-03-22T01:11:28.628Z,998.34
2019-03-22T01:12:28.617Z,998.40
2019-03-22T01:13:28.617Z,998.41
2019-03-22T01:14:28.595Z,998.41
2019-03-22T01:15:28.583Z,998.54
2019-03-22T01:16:28.567Z,998.51
2019-03-22T01:17:28.578Z,998.50
2019-03-22T01:18:28.547Z,998.58
2019-03-22T01:19:28.557Z,998.58
2019-03-22T01:20:28.527Z,998.54
2019-03-22T01:21:28.521Z,998.53
2019-03-22T01:22:28.509Z,998.55
2019-03-22T01:23:28.496Z,998.68
2019-03-22T01:24:28.489Z,998.59
2019-03-22T01:25:28.498Z,998.57
2019-03-22T01:26:28.466Z,998.50
2019-03-22T01:27:39.601Z,998.70
2019-03-22T01:28:29.438Z,998.65
2019-03-22T01:29:28.428Z,998.74
2019-03-22T01:30:28.430Z,998.78
2019-03-22T01:31:28.449Z,998.76
2019-03-22T01:32:28.404Z,998.80
2019-03-22T01:33:28.388Z,998.72
2019-03-22T01:34:28.380Z,998.78
2019-03-22T01:35:28.364Z,998.84
2019-03-22T01:36:28.363Z,998.89
2019-03-22T01:37:38.992Z,998.88
2019-03-22T01:38:28.363Z,998.88
2019-03-22T01:39:28.327Z,998.88
2019-03-22T01:40:28.314Z,998.88
2019-03-22T01:41:28.303Z,998.86
2019-03-22T01:42:28.294Z,998.88
2019-03-22T01:43:28.296Z,998.86
2019-03-22T01:44:28.268Z,998.99
2019-03-22T01:45:28.264Z,998.97
2019-03-22T01:46:28.249Z,998.98
2019-03-22T01:47:28.240Z,998.95
2019-03-22T01:48:28.232Z,999.04
2019-03-22T01:49:28.228Z,999.01
2019-03-22T01:50:28.204Z,999.06
2019-03-22T01:51:28.195Z,999.09
2019-03-22T01:52:28.191Z,999.09
2019-03-22T01:53:28.220Z,999.10
2019-03-22T01:54:28.168Z,999.03
2019-03-22T01:55:28.156Z,999.10
2019-03-22T01:56:28.151Z,999.10
2019-03-22T01:57:28.139Z,999.02
2019-03-22T01:58:28.122Z,999.17
2019-03-22T01:59:28.122Z,999.17
2019-03-22T02:00:28.136Z,999.22
2019-03-22T02:01:28.090Z,999.30
2019-03-22T02:02:28.076Z,999.31
2019-03-22T02:03:28.075Z,999.18
2019-03-22T02:04:28.061Z,999.20
2019-03-22T02:05:28.053Z,999.22
2019-03-22T02:06:28.074Z,999.19
2019-03-22T02:07:28.027Z,999.23
2019-03-22T02:08:38.192Z,999.16
2019-03-22T02:09:28.001Z,999.16
2019-03-22T02:10:27.990Z,999.16
2019-03-22T02:11:27.984Z,999.24
2019-03-22T02:12:27.991Z,999.27
2019-03-22T02:13:27.965Z,999.21
2019-03-22T02:14:27.951Z,999.27
2019-03-22T02:15:27.947Z,999.31
2019-03-22T02:16:27.932Z,999.26
2019-03-22T02:17:27.942Z,999.24
2019-03-22T02:18:27.911Z,999.22
2019-03-22T02:19:27.897Z,999.26
2019-03-22T02:20:27.893Z,999.25
2019-03-22T02:21:27.881Z,999.26
2019-03-22T02:22:27.876Z,999.25
2019-03-22T02:23:27.936Z,999.20
2019-03-22T02:24:27.841Z,999.33
2019-03-22T02:25:27.834Z,999.42
2019-03-22T02:26:27.829Z,999.29
2019-03-22T02:27:27.811Z,999.33
2019-03-22T02:28:27.806Z,999.47
2019-03-22T02:29:27.826Z,999.41
2019-03-22T02:30:27.789Z,999.44
2019-03-22T02:31:27.778Z,999.43
2019-03-22T02:32:27.758Z,999.50
2019-03-22T02:33:27.759Z,999.45
2019-03-22T02:34:27.749Z,999.34
2019-03-22T02:35:29.519Z,999.41
2019-03-22T02:36:27.715Z,999.49
2019-03-22T02:37:27.718Z,999.39
2019-03-22T02:38:27.694Z,999.56
2019-03-22T02:39:38.045Z,999.48
2019-03-22T02:40:27.691Z,999.49
2019-03-22T02:41:27.663Z,999.44
2019-03-22T02:42:27.661Z,999.43
2019-03-22T02:43:27.644Z,999.39
2019-03-22T02:44:27.637Z,999.57
2019-03-22T02:45:27.627Z,999.61
2019-03-22T02:46:27.650Z,999.60
2019-03-22T02:47:27.610Z,999.65
2019-03-22T02:48:27.601Z,999.64
2019-03-22T02:49:27.577Z,999.60
2019-03-22T02:50:27.568Z,999.67
2019-03-22T02:51:27.590Z,999.68
2019-03-22T02:52:27.565Z,999.67
2019-03-22T02:53:27.538Z,999.60
2019-03-22T02:54:27.528Z,999.68
2019-03-22T02:55:27.526Z,999.69
2019-03-22T02:56:27.508Z,999.53
2019-03-22T02:57:27.537Z,999.63
2019-03-22T02:58:27.498Z,999.60
2019-03-22T02:59:27.474Z,999.78
2019-03-22T03:00:27.467Z,999.78
2019-03-22T03:01:27.456Z,999.76
2019-03-22T03:02:27.441Z,999.87
2019-03-22T03:03:27.437Z,999.88
2019-03-22T03:04:27.426Z,999.85
2019-03-22T03:05:27.406Z,999.80
2019-03-22T03:06:27.399Z,999.76
2019-03-22T03:07:27.400Z,999.82
2019-03-22T03:08:27.408Z,999.82
2019-03-22T03:09:27.362Z,999.81
2019-03-22T03:10:37.646Z,999.83
2019-03-22T03:11:27.341Z,999.92
2019-03-22T03:12:27.337Z,999.94
2019-03-22T03:13:27.325Z,999.79
2019-03-22T03:14:27.352Z,1000.00
2019-03-22T03:15:27.302Z,999.91
2019-03-22T03:16:27.290Z,999.89
2019-03-22T03:17:27.281Z,999.86
2019-03-22T03:18:27.269Z,999.87
2019-03-22T03:19:27.263Z,999.93
2019-03-22T03:20:27.272Z,999.96
2019-03-22T03:21:27.233Z,999.98
2019-03-22T03:22:27.232Z,1000.00
2019-03-22T03:23:27.217Z,1000.03
2019-03-22T03:24:27.248Z,1000.01
2019-03-22T03:25:27.205Z,1000.04
2019-03-22T03:26:27.182Z,1000.01
2019-03-22T03:27:27.242Z,1000.21
2019-03-22T03:28:36.677Z,1000.21
2019-03-22T03:29:28.190Z,1000.22
2019-03-22T03:30:27.159Z,1000.25
2019-03-22T03:31:27.155Z,1000.25
2019-03-22T03:32:27.144Z,1000.28
2019-03-22T03:33:27.117Z,1000.31
2019-03-22T03:34:27.120Z,1000.38
2019-03-22T03:35:27.141Z,1000.42
2019-03-22T03:36:27.085Z,1000.37
2019-03-22T03:37:27.071Z,1000.45
2019-03-22T03:38:27.110Z,1000.47
2019-03-22T03:39:27.051Z,1000.52
2019-03-22T03:40:27.035Z,1000.49
2019-03-22T03:41:37.567Z,1000.43
2019-03-22T03:42:27.012Z,1000.60
2019-03-22T03:43:27.003Z,1000.57
2019-03-22T03:44:26.996Z,1000.49
2019-03-22T03:45:26.989Z,1000.62
2019-03-22T03:46:26.976Z,1000.60
2019-03-22T03:47:26.985Z,1000.65
2019-03-22T03:48:26.988Z,1000.61
2019-03-22T03:49:26.945Z,1000.61
2019-03-22T03:50:26.936Z,1000.64
2019-03-22T03:51:26.917Z,1000.69
2019-03-22T03:52:26.919Z,1000.72
2019-03-22T03:53:26.902Z,1000.72
2019-03-22T03:54:26.901Z,1000.73
2019-03-22T03:55:26.873Z,1000.65
2019-03-22T03:56:26.868Z,1000.72
2019-03-22T03:57:26.938Z,1000.80
2019-03-22T03:58:26.845Z,1000.78
2019-03-22T03:59:26.850Z,1000.76
2019-03-22T04:00:26.820Z,1000.92
2019-03-22T04:01:26.811Z,1000.82
2019-03-22T04:02:26.801Z,1000.83
2019-03-22T04:03:26.793Z,1000.85
2019-03-22T04:04:26.842Z,1000.86
2019-03-22T04:05:26.806Z,1000.87
2019-03-22T04:06:26.761Z,1000.94
2019-03-22T04:07:26.748Z,1001.04
2019-03-22T04:08:26.745Z,1000.96
2019-03-22T04:09:26.724Z,1000.87
2019-03-22T04:10:26.724Z,1000.99
2019-03-22T04:11:26.731Z,1000.83
2019-03-22T04:12:36.690Z,1000.94
2019-03-22T04:13:26.685Z,1000.91
2019-03-22T04:14:26.676Z,1000.91
2019-03-22T04:15:26.663Z,1000.86
2019-03-22T04:16:26.653Z,1001.00
2019-03-22T04:17:26.660Z,1001.11
2019-03-22T04:18:26.631Z,1000.98
2019-03-22T04:19:26.630Z,1001.02
2019-03-22T04:20:26.612Z,1001.16
2019-03-22T04:21:26.596Z,1001.08
2019-03-22T04:22:26.590Z,1000.99
2019-03-22T04:23:26.592Z,1001.11
2019-03-22T04:24:26.574Z,1001.17
2019-03-22T04:25:26.565Z,1001.29
2019-03-22T04:26:26.547Z,1001.27
2019-03-22T04:27:26.539Z,1001.23
2019-03-22T04:28:26.564Z,1001.34
2019-03-22T04:29:26.525Z,1001.36
2019-03-22T04:30:26.634Z,1001.38
2019-03-22T04:31:26.492Z,1001.41
2019-03-22T04:32:26.487Z,1001.41
2019-03-22T04:33:26.485Z,1001.38
2019-03-22T04:34:26.474Z,1001.36
2019-03-22T04:35:26.455Z,1001.37
2019-03-22T04:36:26.441Z,1001.21
2019-03-22T04:37:26.438Z,1001.44
2019-03-22T04:38:26.427Z,1001.39
2019-03-22T04:39:26.423Z,1001.50
2019-03-22T04:40:26.396Z,1001.38
2019-03-22T04:41:26.387Z,1001.54
2019-03-22T04:42:26.377Z,1001.52
2019-03-22T04:43:36.616Z,1001.55
2019-03-22T04:44:26.366Z,1001.57
2019-03-22T04:45:26.352Z,1001.59
2019-03-22T04:46:26.331Z,1001.65
2019-03-22T04:47:26.331Z,1001.61
2019-03-22T04:48:26.312Z,1001.55
2019-03-22T04:49:26.299Z,1001.67
2019-03-22T04:50:26.391Z,1001.68
2019-03-22T04:51:26.289Z,1001.62
2019-03-22T04:52:26.281Z,1001.77
2019-03-22T04:53:26.255Z,1001.73
2019-03-22T04:54:26.251Z,1001.74
2019-03-22T04:55:26.243Z,1001.71
2019-03-22T04:56:26.265Z,1001.70
2019-03-22T04:57:26.218Z,1001.64
2019-03-22T04:58:26.211Z,1001.69
2019-03-22T04:59:26.190Z,1001.63
2019-03-22T05:00:26.181Z,1001.72
2019-03-22T05:01:26.177Z,1001.72
2019-03-22T05:02:26.174Z,1001.70
2019-03-22T05:03:26.155Z,1001.72
2019-03-22T05:04:26.139Z,1001.79
2019-03-22T05:05:26.134Z,1001.89
2019-03-22T05:06:26.121Z,1001.83
2019-03-22T05:07:26.126Z,1001.91
2019-03-22T05:08:26.103Z,1001.93
2019-03-22T05:09:26.091Z,1001.85
2019-03-22T05:10:26.078Z,1001.96
2019-03-22T05:11:26.064Z,1001.86
2019-03-22T05:12:26.054Z,1001.78
2019-03-22T05:13:26.074Z,1001.76
2019-03-22T05:14:36.265Z,1001.88
2019-03-22T05:15:26.019Z,1001.88
2019-03-22T05:16:26.013Z,1001.90
2019-03-22T05:17:26.001Z,1001.89
2019-03-22T05:18:25.985Z,1001.87
2019-03-22T05:19:26.024Z,1001.72
2019-03-22T05:20:25.974Z,1001.80
2019-03-22T05:21:25.960Z,1001.86
2019-03-22T05:22:25.943Z,1001.92
2019-03-22T05:23:25.943Z,1001.88
2019-03-22T05:24:25.922Z,1001.86
2019-03-22T05:25:25.949Z,1001.84
2019-03-22T05:26:25.905Z,1001.70
2019-03-22T05:27:25.900Z,1001.67
2019-03-22T05:28:25.883Z,1001.74
2019-03-22T05:29:30.428Z,1001.81
2019-03-22T05:30:26.905Z,1001.77
2019-03-22T05:31:25.850Z,1001.86
2019-03-22T05:32:25.837Z,1001.97
2019-03-22T05:33:25.826Z,1001.87
2019-03-22T05:34:25.824Z,1001.97
2019-03-22T05:35:25.805Z,1001.90
2019-03-22T05:36:25.807Z,1001.97
2019-03-22T05:37:25.786Z,1001.83
2019-03-22T05:38:25.779Z,1002.01
2019-03-22T05:39:25.767Z,1002.08
2019-03-22T05:40:25.752Z,1001.95
2019-03-22T05:41:25.785Z,1002.01
2019-03-22T05:42:25.734Z,1002.08
2019-03-22T05:43:25.744Z,1002.11
2019-03-22T05:44:25.705Z,1002.01
2019-03-22T05:45:36.181Z,1002.09
2019-03-22T05:46:25.685Z,1002.03
2019-03-22T05:47:25.717Z,1002.10
2019-03-22T05:48:25.665Z,1002.23
2019-03-22T05:49:25.662Z,1002.23
2019-03-22T05:50:25.645Z,1002.17
2019-03-22T05:51:25.631Z,1002.23
2019-03-22T05:52:25.640Z,1002.18
2019-03-22T05:53:25.624Z,1002.28
2019-03-22T05:54:25.614Z,1002.22
2019-03-22T05:55:25.592Z,1002.23
2019-03-22T05:56:25.576Z,1002.26
2019-03-22T05:57:25.565Z,1002.29
2019-03-22T05:58:25.563Z,1002.24
2019-03-22T05:59:25.553Z,1002.33
2019-03-22T06:00:25.532Z,1002.33
2019-03-22T06:01:25.529Z,1002.37
2019-03-22T06:02:25.513Z,1002.37
2019-03-22T06:03:25.544Z,1002.41
2019-03-22T06:04:25.513Z,1002.42
2019-03-22T06:05:25.502Z,1002.59
2019-03-22T06:06:25.480Z,1002.40
2019-03-22T06:07:25.465Z,1002.43
2019-03-22T06:08:25.466Z,1002.47
2019-03-22T06:09:25.505Z,1002.47
2019-03-22T06:10:25.425Z,1002.53
2019-03-22T06:11:25.421Z,1002.58
2019-03-22T06:12:25.405Z,1002.52
2019-03-22T06:13:25.397Z,1002.50
2019-03-22T06:14:25.383Z,1002.47
2019-03-22T06:15:25.417Z,1002.53
2019-03-22T06:16:35.316Z,1002.57
2019-03-22T06:17:25.372Z,1002.62
2019-03-22T06:18:25.340Z,1002.68
2019-03-22T06:19:25.353Z,1002.73
2019-03-22T06:20:25.319Z,1002.82
2019-03-22T06:21:25.738Z,1002.58
2019-03-22T06:22:25.300Z,1002.75
2019-03-22T06:23:25.290Z,1002.73
2019-03-22T06:24:25.285Z,1002.75
2019-03-22T06:25:25.274Z,1002.83
2019-03-22T06:26:25.260Z,1002.66
2019-03-22T06:27:25.273Z,1002.84
2019-03-22T06:28:25.235Z,1002.77
2019-03-22T06:29:25.231Z,1002.70
2019-03-22T06:30:25.228Z,1002.82
2019-03-22T06:31:25.203Z,1002.90
2019-03-22T06:32:25.262Z,1002.76
2019-03-22T06:33:25.187Z,1002.95
2019-03-22T06:34:25.172Z,1002.70
2019-03-22T06:35:25.158Z,1002.79
2019-03-22T06:36:25.156Z,1002.88
2019-03-22T06:37:25.155Z,1002.85
2019-03-22T06:38:25.162Z,1003.08
2019-03-22T06:39:25.148Z,1003.01
2019-03-22T06:40:25.111Z,1003.00
2019-03-22T06:41:25.104Z,1003.06
2019-03-22T06:42:25.090Z,1003.02
2019-03-22T06:43:25.076Z,1002.94
2019-03-22T06:44:25.077Z,1003.04
2019-03-22T06:45:25.052Z,1002.97
2019-03-22T06:46:25.048Z,1003.06
2019-03-22T06:47:37.110Z,1003.02
2019-03-22T06:48:25.018Z,1003.07
2019-03-22T06:49:25.050Z,1003.01
2019-03-22T06:50:24.998Z,1003.14
2019-03-22T06:51:24.994Z,1003.25
2019-03-22T06:52:24.975Z,1003.23
2019-03-22T06:53:24.973Z,1003.07
2019-03-22T06:54:31.486Z,1003.24
2019-03-22T06:55:25.952Z,1003.22
2019-03-22T06:56:24.936Z,1003.18
2019-03-22T06:57:24.929Z,1003.19
2019-03-22T06:58:24.924Z,1003.17
2019-03-22T06:59:24.903Z,1003.15
2019-03-22T07:00:24.933Z,1003.23
2019-03-22T07:01:24.885Z,1003.08
2019-03-22T07:02:24.870Z,1003.22
2019-03-22T07:03:24.977Z,1003.22
2019-03-22T07:04:24.914Z,1003.10
2019-03-22T07:05:24.835Z,1003.18
2019-03-22T07:06:24.901Z,1003.17
2019-03-22T07:07:24.816Z,1003.23
2019-03-22T07:08:24.808Z,1003.26
2019-03-22T07:09:24.801Z,1003.30
2019-03-22T07:10:24.788Z,1003.32
2019-03-22T07:11:24.774Z,1003.47
2019-03-22T07:12:24.795Z,1003.37
2019-03-22T07:13:24.754Z,1003.34
2019-03-22T07:14:24.743Z,1003.31
2019-03-22T07:15:24.734Z,1003.42
2019-03-22T07:16:24.715Z,1003.36
2019-03-22T07:17:24.711Z,1003.45
2019-03-22T07:18:35.703Z,1003.33
2019-03-22T07:19:24.683Z,1003.30
2019-03-22T07:20:24.670Z,1003.41
2019-03-22T07:21:24.729Z,1003.44
2019-03-22T07:22:24.660Z,1003.62
2019-03-22T07:23:24.647Z,1003.47
2019-03-22T07:24:24.676Z,1003.45
2019-03-22T07:25:24.678Z,1003.42
2019-03-22T07:26:24.610Z,1003.58
2019-03-22T07:27:24.603Z,1003.53
2019-03-22T07:28:24.584Z,1003.62
2019-03-22T07:29:24.618Z,1003.64
2019-03-22T07:30:25.654Z,1003.52
2019-03-22T07:31:24.765Z,1003.80
2019-03-22T07:32:25.222Z,1003.81
2019-03-22T07:33:24.649Z,1003.77
2019-03-22T07:34:24.582Z,1003.75
2019-03-22T07:35:25.061Z,1003.66
2019-03-22T07:36:24.496Z,1003.69
2019-03-22T07:37:24.494Z,1003.82
2019-03-22T07:38:24.513Z,1003.87
2019-03-22T07:39:24.469Z,1003.54
2019-03-22T07:40:24.461Z,1003.68
2019-03-22T07:41:24.469Z,1003.78
2019-03-22T07:42:24.437Z,1003.79
2019-03-22T07:43:24.426Z,1003.75
2019-03-22T07:44:24.425Z,1003.68
2019-03-22T07:45:24.406Z,1003.83
2019-03-22T07:46:24.408Z,1003.86
2019-03-22T07:47:24.388Z,1003.84
2019-03-22T07:48:24.873Z,1003.89
2019-03-22T07:49:35.048Z,1003.93
2019-03-22T07:50:24.349Z,1003.98
2019-03-22T07:51:24.338Z,1004.07
2019-03-22T07:52:24.366Z,1003.96
2019-03-22T07:53:24.329Z,1004.10
2019-03-22T07:54:24.311Z,1004.22
2019-03-22T07:55:24.315Z,1004.22
2019-03-22T07:56:24.287Z,1004.25
2019-03-22T07:57:24.274Z,1004.36
2019-03-22T07:58:24.294Z,1004.30
2019-03-22T07:59:24.255Z,1004.16
2019-03-22T08:00:30.723Z,1004.33
2019-03-22T08:01:25.228Z,1004.33
2019-03-22T08:02:25.612Z,1004.28
2019-03-22T08:03:24.223Z,1004.38
2019-03-22T08:04:24.249Z,1004.31
2019-03-22T08:05:24.184Z,1004.36
2019-03-22T08:06:24.172Z,1004.54
2019-03-22T08:07:24.161Z,1004.46
2019-03-22T08:08:24.162Z,1004.41
2019-03-22T08:09:24.148Z,1004.46
2019-03-22T08:10:25.811Z,1004.47
2019-03-22T08:11:24.964Z,1004.37
2019-03-22T08:12:24.107Z,1004.39
2019-03-22T08:13:24.118Z,1004.42
2019-03-22T08:14:24.088Z,1004.26
2019-03-22T08:15:24.083Z,1004.62
2019-03-22T08:16:24.126Z,1004.57
2019-03-22T08:17:24.075Z,1004.78
2019-03-22T08:18:24.045Z,1004.65
2019-03-22T08:19:24.034Z,1004.69
2019-03-22T08:20:38.641Z,1004.74
2019-03-22T08:21:24.034Z,1004.68
2019-03-22T08:22:24.063Z,1004.64
2019-03-22T08:23:24.010Z,1004.77
2019-03-22T08:24:23.985Z,1004.78
2019-03-22T08:25:32.421Z,1004.78
2019-03-22T08:26:24.006Z,1004.67
2019-03-22T08:27:23.967Z,1004.77
2019-03-22T08:28:24.005Z,1004.96
2019-03-22T08:29:23.934Z,1004.96
2019-03-22T08:30:23.917Z,1005.06
2019-03-22T08:31:23.924Z,1005.02
2019-03-22T08:32:23.898Z,1005.12
2019-03-22T08:33:23.909Z,1005.11
2019-03-22T08:34:23.921Z,1004.96
2019-03-22T08:35:23.888Z,1005.04
2019-03-22T08:36:23.852Z,1005.04
2019-03-22T08:37:23.853Z,1005.07
2019-03-22T08:38:23.874Z,1005.10
2019-03-22T08:39:23.845Z,1005.09
2019-03-22T08:40:23.847Z,1005.11
2019-03-22T08:41:24.116Z,1005.20
2019-03-22T08:42:23.786Z,1005.10
2019-03-22T08:43:23.825Z,1005.34
2019-03-22T08:44:23.840Z,1005.22
2019-03-22T08:45:23.758Z,1005.26
2019-03-22T08:46:23.748Z,1005.22
2019-03-22T08:47:33.294Z,1005.30
2019-03-22T08:48:24.738Z,1005.30
2019-03-22T08:49:23.863Z,1005.22
2019-03-22T08:50:23.710Z,1005.43
2019-03-22T08:51:23.705Z,1005.29
2019-03-22T08:52:23.687Z,1005.29
2019-03-22T08:53:23.673Z,1005.21
2019-03-22T08:54:23.684Z,1005.32
2019-03-22T08:55:23.655Z,1005.36
2019-03-22T08:56:36.120Z,1005.38
2019-03-22T08:57:24.936Z,1005.51
2019-03-22T08:58:23.640Z,1004.85
2019-03-22T08:59:23.609Z,1005.44
2019-03-22T09:00:23.627Z,1005.39
2019-03-22T09:01:23.651Z,1005.59
2019-03-22T09:02:23.575Z,1005.60
2019-03-22T09:03:23.604Z,1005.65
2019-03-22T09:04:23.610Z,1005.66
2019-03-22T09:05:23.579Z,1005.78
2019-03-22T09:06:23.557Z,1005.67
2019-03-22T09:07:24.563Z,1005.66
2019-03-22T09:08:23.529Z,1005.65
2019-03-22T09:09:23.501Z,1005.61
2019-03-22T09:10:23.491Z,1005.81
2019-03-22T09:11:23.523Z,1005.65
2019-03-22T09:12:23.515Z,1005.58
2019-03-22T09:13:23.452Z,1005.72
2019-03-22T09:14:23.439Z,1005.64
2019-03-22T09:15:23.545Z,1005.65
2019-03-22T09:16:23.470Z,1005.73
2019-03-22T09:17:23.409Z,1005.73
2019-03-22T09:18:23.449Z,1005.81
2019-03-22T09:19:23.381Z,1005.82
2019-03-22T09:20:23.436Z,1005.85
2019-03-22T09:21:23.406Z,1005.87
2019-03-22T09:22:23.351Z,1005.89
2019-03-22T09:23:23.354Z,1005.91
2019-03-22T09:24:23.389Z,1005.99
2019-03-22T09:25:23.317Z,1005.97
2019-03-22T09:26:23.315Z,1005.87
2019-03-22T09:27:36.368Z,1006.06
2019-03-22T09:28:23.308Z,1006.24
2019-03-22T09:29:23.293Z,1006.09
2019-03-22T09:30:23.316Z,1006.05
2019-03-22T09:31:23.344Z,1006.04
2019-03-22T09:32:23.243Z,1006.06
2019-03-22T09:33:23.254Z,1006.21
2019-03-22T09:34:33.164Z,1006.15
2019-03-22T09:35:24.253Z,1006.13
2019-03-22T09:36:23.207Z,1006.13
2019-03-22T09:37:23.204Z,1006.16
2019-03-22T09:38:23.194Z,1006.14
2019-03-22T09:39:23.169Z,1006.39
2019-03-22T09:40:23.203Z,1006.37
2019-03-22T09:41:23.236Z,1006.35
2019-03-22T09:42:23.134Z,1006.35
2019-03-22T09:43:23.120Z,1006.40
2019-03-22T09:44:23.131Z,1006.44
2019-03-22T09:45:23.111Z,1006.61
2019-03-22T09:46:23.103Z,1006.49
2019-03-22T09:47:23.167Z,1006.50
2019-03-22T09:48:23.065Z,1006.62
2019-03-22T09:49:23.067Z,1006.69
2019-03-22T09:50:23.094Z,1006.78
2019-03-22T09:51:23.035Z,1006.67
2019-03-22T09:52:23.023Z,1006.81
2019-03-22T09:53:23.077Z,1006.65
2019-03-22T09:54:23.036Z,1006.89
2019-03-22T09:55:23.028Z,1007.03
2019-03-22T09:56:22.982Z,1006.95
2019-03-22T09:57:22.971Z,1006.86
2019-03-22T09:58:33.353Z,1006.68
2019-03-22T09:59:22.945Z,1006.71
2019-03-22T10:00:22.933Z,1006.78
2019-03-22T10:01:24.160Z,1006.84
2019-03-22T10:02:22.925Z,1006.83
2019-03-22T10:03:22.898Z,1006.77
2019-03-22T10:04:22.906Z,1006.86
2019-03-22T10:05:22.879Z,1006.85
2019-03-22T10:06:22.910Z,1006.99
2019-03-22T10:07:22.908Z,1006.99
2019-03-22T10:08:22.878Z,1006.97
2019-03-22T10:09:22.918Z,1007.05
2019-03-22T10:10:22.863Z,1007.04
2019-03-22T10:11:22.819Z,1007.07
2019-03-22T10:12:22.811Z,1007.08
2019-03-22T10:13:22.903Z,1007.20
2019-03-22T10:14:22.788Z,1007.19
2019-03-22T10:15:22.884Z,1007.25
2019-03-22T10:16:22.774Z,1007.33
2019-03-22T10:17:22.747Z,1007.31
2019-03-22T10:18:22.922Z,1007.33
2019-03-22T10:19:22.745Z,1007.25
2019-03-22T10:20:22.761Z,1007.29
2019-03-22T10:21:23.060Z,1007.28
2019-03-22T10:22:22.699Z,1007.38
2019-03-22T10:23:22.801Z,1007.29
2019-03-22T10:24:22.802Z,1007.34
2019-03-22T10:25:22.712Z,1007.34
2019-03-22T10:26:22.706Z,1007.37
2019-03-22T10:27:22.668Z,1007.40
2019-03-22T10:28:22.692Z,1007.52
2019-03-22T10:29:33.193Z,1007.39
2019-03-22T10:30:22.639Z,1007.59
2019-03-22T10:31:22.649Z,1007.50
2019-03-22T10:32:23.949Z,1007.56
2019-03-22T10:33:23.239Z,1007.59
2019-03-22T10:34:22.592Z,1007.53
2019-03-22T10:35:26.443Z,1007.58
2019-03-22T10:36:22.551Z,1007.60
2019-03-22T10:37:22.576Z,1007.64
2019-03-22T10:38:31.020Z,1007.76
2019-03-22T10:39:23.539Z,1007.69
2019-03-22T10:40:22.505Z,1007.78
2019-03-22T10:41:22.514Z,1007.80
2019-03-22T10:42:22.479Z,1008.12
2019-03-22T10:43:22.530Z,1007.89
2019-03-22T10:44:22.521Z,1007.83
2019-03-22T10:45:22.523Z,1007.92
2019-03-22T10:46:22.464Z,1008.05
2019-03-22T10:47:22.459Z,1007.83
2019-03-22T10:48:22.425Z,1008.24
2019-03-22T10:49:22.435Z,1007.81
2019-03-22T10:50:22.447Z,1008.08
2019-03-22T10:51:22.390Z,1007.88
2019-03-22T10:52:22.374Z,1008.45
2019-03-22T10:53:22.409Z,1007.96
2019-03-22T10:54:22.355Z,1007.73
2019-03-22T10:55:29.882Z,1008.14
2019-03-22T10:56:24.901Z,1008.33
2019-03-22T10:57:22.314Z,1008.22
2019-03-22T10:58:22.303Z,1008.52
2019-03-22T10:59:22.290Z,1008.44
2019-03-22T11:00:32.299Z,1008.39
2019-03-22T11:01:22.276Z,1008.48
2019-03-22T11:02:22.270Z,1008.48
2019-03-22T11:03:22.256Z,1008.50
2019-03-22T11:04:22.246Z,1008.59
2019-03-22T11:05:22.225Z,1008.50
2019-03-22T11:06:26.305Z,1008.54
2019-03-22T11:07:22.251Z,1008.58
2019-03-22T11:08:22.241Z,1008.64
2019-03-22T11:09:22.216Z,1008.68
2019-03-22T11:10:22.180Z,1008.67
2019-03-22T11:11:22.170Z,1008.71
2019-03-22T11:12:22.158Z,1008.81
2019-03-22T11:13:22.207Z,1008.81
2019-03-22T11:14:22.132Z,1008.70
2019-03-22T11:15:23.931Z,1008.83
2019-03-22T11:16:22.115Z,1008.96
2019-03-22T11:17:22.113Z,1008.81
2019-03-22T11:18:22.094Z,1008.81
2019-03-22T11:19:22.121Z,1008.89
2019-03-22T11:20:22.072Z,1008.98
2019-03-22T11:21:22.060Z,1008.99
2019-03-22T11:22:22.052Z,1008.98
2019-03-22T11:23:22.042Z,1008.87
2019-03-22T11:24:22.027Z,1009.04
2019-03-22T11:25:22.040Z,1009.02
2019-03-22T11:26:22.063Z,1009.09
2019-03-22T11:27:22.153Z,1009.19
2019-03-22T11:28:21.994Z,1009.03
2019-03-22T11:29:21.983Z,1009.05
2019-03-22T11:30:21.981Z,1009.22
2019-03-22T11:31:39.540Z,1009.05
2019-03-22T11:32:22.945Z,1009.21
2019-03-22T11:33:21.936Z,1009.25
2019-03-22T11:34:21.929Z,1009.13
2019-03-22T11:35:21.916Z,1009.35
2019-03-22T11:36:21.932Z,1009.28
2019-03-22T11:37:21.902Z,1009.39
2019-03-22T11:38:22.967Z,1009.35
2019-03-22T11:39:21.874Z,1009.52
2019-03-22T11:40:21.861Z,1009.52
2019-03-22T11:41:21.889Z,1009.57
2019-03-22T11:42:21.841Z,1009.54
2019-03-22T11:43:21.829Z,1009.59
2019-03-22T11:44:21.824Z,1009.59
2019-03-22T11:45:21.808Z,1009.62
2019-03-22T11:46:21.805Z,1009.71
2019-03-22T11:47:21.828Z,1009.58
2019-03-22T11:48:21.784Z,1009.68
2019-03-22T11:49:21.772Z,1009.56
2019-03-22T11:50:21.760Z,1009.65
2019-03-22T11:51:21.755Z,1009.63
2019-03-22T11:52:21.737Z,1009.72
2019-03-22T11:53:21.747Z,1009.73
2019-03-22T11:54:21.720Z,1009.78
2019-03-22T11:55:21.715Z,1009.81
2019-03-22T11:56:21.706Z,1009.78
2019-03-22T11:57:21.691Z,1009.74
2019-03-22T11:58:21.677Z,1009.86
2019-03-22T11:59:21.680Z,1009.84
2019-03-22T12:00:21.655Z,1009.81
2019-03-22T12:01:22.634Z,1009.68
2019-03-22T12:02:31.778Z,1009.83
2019-03-22T12:03:21.632Z,1009.89
2019-03-22T12:04:21.658Z,1009.86
2019-03-22T12:05:21.606Z,1009.84
2019-03-22T12:06:21.593Z,1010.00
2019-03-22T12:07:21.589Z,1009.93
2019-03-22T12:08:22.381Z,1009.90
2019-03-22T12:09:23.005Z,1010.08
2019-03-22T12:10:21.595Z,1010.05
2019-03-22T12:11:21.547Z,1010.09